Time;durP1;ratioP1;P1;durP2;ratioP2;P2;SDS_P1;SDS_P2;PMS_P1;PMS_P2;Temp;Humidity;BMP_temperature;BMP_pressure;BME280_temperature;BME280_humidity;BME280_pressure;Samples;Min_cycle;Max_cycle;Signal;HPM_P1;HPM_P2
2021/03/23 00:00:50;;;;;;;4.22;1.83;;;22.80;41.60;;;;;;5065630;28;20028;-62
2021/03/23 00:03:21;;;;;;;2.05;1.00;;;22.80;41.60;;;;;;5066865;28;20526;-62
2021/03/23 00:05:47;;;;;;;1.85;1.10;;;22.80;41.60;;;;;;5064300;28;20498;-65
2021/03/23 00:08:27;;;;;;;2.50;1.27;;;22.80;42.10;;;;;;5047246;28;20029;-64
2021/03/23 00:10:55;;;;;;;3.90;1.30;;;22.80;41.60;;;;;;5065910;28;20102;-62
2021/03/23 00:13:20;;;;;;;3.10;1.20;;;22.80;41.60;;;;;;5064864;28;20032;-65
2021/03/23 00:15:47;;;;;;;2.40;1.30;;;22.80;41.60;;;;;;5063834;28;20028;-65
2021/03/23 00:18:13;;;;;;;2.15;1.13;;;22.80;41.60;;;;;;5072440;28;20395;-63
2021/03/23 00:20:39;;;;;;;2.70;1.10;;;22.70;41.60;;;;;;5073538;28;20024;-62
2021/03/23 00:23:05;;;;;;;1.77;1.10;;;22.70;41.60;;;;;;5085640;28;20526;-63
2021/03/23 00:25:31;;;;;;;2.20;1.20;;;22.70;41.50;;;;;;5072184;28;20025;-62
2021/03/23 00:27:57;;;;;;;1.98;1.08;;;22.70;41.60;;;;;;5066099;28;20101;-62
2021/03/23 00:30:22;;;;;;;2.60;1.25;;;22.70;41.50;;;;;;5070116;28;20490;-64
2021/03/23 00:32:48;;;;;;;3.80;1.30;;;22.70;41.60;;;;;;5065740;28;20090;-62
2021/03/23 00:35:14;;;;;;;2.72;1.10;;;22.70;41.60;;;;;;5073442;28;20167;-62
2021/03/23 00:37:41;;;;;;;1.92;1.00;;;22.70;41.60;;;;;;5081809;28;20048;-61
2021/03/23 00:40:11;;;;;;;2.78;1.10;;;22.70;41.60;;;;;;5073311;28;20035;-65
2021/03/23 00:42:37;;;;;;;1.83;1.10;;;22.70;41.60;;;;;;5084672;28;20032;-63
2021/03/23 00:45:04;;;;;;;1.65;1.10;;;22.70;41.60;;;;;;5082647;28;20097;-64
2021/03/23 00:47:30;;;;;;;2.85;1.10;;;22.70;41.60;;;;;;5047449;28;20064;-63
2021/03/23 00:49:55;;;;;;;3.47;1.15;;;22.70;41.60;;;;;;5075653;28;20401;-61
2021/03/23 00:52:21;;;;;;;2.35;1.10;;;22.70;41.60;;;;;;5075998;28;20494;-61
2021/03/23 00:54:49;;;;;;;1.73;1.00;;;22.60;41.50;;;;;;5078149;28;20043;-64
2021/03/23 00:57:14;;;;;;;2.58;1.10;;;22.70;42.10;;;;;;5085429;28;20472;-62
2021/03/23 00:59:40;;;;;;;2.10;1.10;;;22.60;41.50;;;;;;5075226;28;20067;-66
2021/03/23 01:02:06;;;;;;;1.45;0.95;;;22.70;41.60;;;;;;5054969;28;20072;-62
2021/03/23 01:04:31;;;;;;;1.88;1.20;;;22.60;42.10;;;;;;5069527;28;20098;-63
2021/03/23 01:06:57;;;;;;;2.25;1.20;;;22.60;41.50;;;;;;5058889;28;20033;-63
2021/03/23 01:09:22;;;;;;;2.08;1.10;;;22.60;42.10;;;;;;5081580;28;20112;-63
2021/03/23 01:11:48;;;;;;;1.25;0.85;;;22.60;41.50;;;;;;5046678;28;20102;-61
2021/03/23 01:14:14;;;;;;;1.90;1.00;;;22.60;41.50;;;;;;5057433;28;20124;-62
2021/03/23 01:16:40;;;;;;;1.90;1.15;;;22.60;41.60;;;;;;5071135;28;20467;-61
2021/03/23 01:19:05;;;;;;;2.17;1.00;;;22.60;41.50;;;;;;5072139;28;20362;-62
2021/03/23 01:21:31;;;;;;;1.95;1.00;;;22.60;41.50;;;;;;5052357;28;20095;-61
2021/03/23 01:23:57;;;;;;;1.42;1.00;;;22.60;41.50;;;;;;5071733;28;20028;-62
2021/03/23 01:26:22;;;;;;;2.22;1.20;;;22.60;41.50;;;;;;5072141;28;20039;-64
2021/03/23 01:28:48;;;;;;;1.85;1.05;;;22.60;41.50;;;;;;5075581;28;20093;-62
2021/03/23 01:31:14;;;;;;;2.65;1.15;;;22.50;41.50;;;;;;5088723;28;20082;-62
2021/03/23 01:33:39;;;;;;;1.20;0.85;;;22.60;41.60;;;;;;5087665;28;20844;-62
2021/03/23 01:36:05;;;;;;;1.42;0.80;;;22.60;41.50;;;;;;5078218;28;20462;-62
2021/03/23 01:38:31;;;;;;;1.75;1.02;;;22.60;41.50;;;;;;5059597;28;20028;-61
2021/03/23 01:40:57;;;;;;;2.05;1.05;;;22.60;41.50;;;;;;5077300;28;20082;-63
2021/03/23 01:43:26;;;;;;;3.55;1.35;;;22.50;41.50;;;;;;5077873;28;20114;-62
2021/03/23 01:45:52;;;;;;;1.85;0.90;;;22.50;41.50;;;;;;5078468;28;20036;-64
2021/03/23 01:48:22;;;;;;;1.90;0.98;;;22.50;41.50;;;;;;5090784;28;20081;-63
2021/03/23 01:50:51;;;;;;;1.30;1.00;;;22.50;41.50;;;;;;5091988;28;20032;-61
2021/03/23 01:53:36;;;;;;;2.03;1.00;;;22.50;41.50;;;;;;5077516;28;20035;-62
2021/03/23 01:56:03;;;;;;;2.08;0.98;;;22.50;41.50;;;;;;5075671;28;20037;-63
2021/03/23 01:58:29;;;;;;;2.25;1.10;;;22.50;41.50;;;;;;5080556;28;20046;-62
2021/03/23 02:00:55;;;;;;;3.22;1.30;;;22.50;41.50;;;;;;5077099;28;20398;-63
2021/03/23 02:03:22;;;;;;;1.90;1.00;;;22.50;41.50;;;;;;5076738;28;20024;-65
2021/03/23 02:05:59;;;;;;;1.88;0.88;;;22.50;41.50;;;;;;5072170;28;20111;-62
2021/03/23 02:08:26;;;;;;;1.42;0.90;;;22.40;41.40;;;;;;5070877;28;20108;-62
2021/03/23 02:10:54;;;;;;;2.33;1.00;;;22.50;41.50;;;;;;5074113;28;20459;-61
2021/03/23 02:13:21;;;;;;;1.48;1.05;;;22.40;41.40;;;;;;5068682;28;20032;-65
2021/03/23 02:15:47;;;;;;;1.55;0.80;;;22.40;41.40;;;;;;5070834;28;20020;-65
2021/03/23 02:18:26;;;;;;;1.80;1.00;;;22.40;41.50;;;;;;5049702;28;20198;-63
2021/03/23 02:21:03;;;;;;;1.80;0.90;;;22.40;41.50;;;;;;5080082;28;20035;-64
2021/03/23 02:23:44;;;;;;;1.30;0.90;;;22.40;41.50;;;;;;5067384;28;20982;-62
2021/03/23 02:26:19;;;;;;;1.95;1.00;;;22.40;41.50;;;;;;5064458;28;20506;-65
2021/03/23 02:28:58;;;;;;;1.60;0.90;;;22.40;41.50;;;;;;5063260;28;20036;-62
2021/03/23 02:31:35;;;;;;;1.67;0.90;;;22.40;41.50;;;;;;5066430;28;20037;-65
2021/03/23 02:34:03;;;;;;;2.08;1.10;;;22.40;41.50;;;;;;5069611;28;20039;-62
2021/03/23 02:36:29;;;;;;;1.63;1.00;;;22.40;41.50;;;;;;5084627;28;20043;-61
2021/03/23 02:38:55;;;;;;;1.27;0.82;;;22.40;41.50;;;;;;5059492;28;20052;-63
2021/03/23 02:41:21;;;;;;;1.52;1.00;;;22.40;41.50;;;;;;5073876;28;20075;-62
2021/03/23 02:43:47;;;;;;;1.48;1.00;;;22.40;41.50;;;;;;5063350;28;20036;-64
2021/03/23 02:46:13;;;;;;;2.13;1.00;;;22.40;41.50;;;;;;5075000;28;20038;-62
2021/03/23 02:48:39;;;;;;;1.80;1.10;;;22.30;41.50;;;;;;5088133;28;20077;-62
2021/03/23 02:51:06;;;;;;;1.67;0.95;;;22.40;41.50;;;;;;5076730;28;20039;-62
2021/03/23 02:53:31;;;;;;;1.70;1.00;;;22.40;41.50;;;;;;5075117;28;20047;-64
2021/03/23 02:55:58;;;;;;;2.53;0.80;;;22.40;42.00;;;;;;5067830;28;20066;-62
2021/03/23 02:58:23;;;;;;;1.35;0.90;;;22.30;41.40;;;;;;5057733;28;20076;-63
2021/03/23 03:00:49;;;;;;;1.65;1.00;;;22.40;41.50;;;;;;5080151;28;20032;-63
2021/03/23 03:03:15;;;;;;;1.70;1.10;;;22.30;41.40;;;;;;5061281;28;20025;-63
2021/03/23 03:05:41;;;;;;;1.45;0.80;;;22.30;41.50;;;;;;5065127;28;20028;-62
2021/03/23 03:08:07;;;;;;;1.63;1.00;;;22.30;41.40;;;;;;5067412;28;20032;-64
2021/03/23 03:10:34;;;;;;;1.23;0.80;;;22.30;41.50;;;;;;5051022;28;20134;-62
2021/03/23 03:13:02;;;;;;;1.10;0.82;;;22.30;41.50;;;;;;5081286;28;20039;-63
2021/03/23 03:15:29;;;;;;;1.73;0.93;;;22.30;41.50;;;;;;5074530;28;20021;-61
2021/03/23 03:17:55;;;;;;;1.30;0.95;;;22.30;41.50;;;;;;5048980;28;20042;-62
2021/03/23 03:20:21;;;;;;;1.83;0.90;;;22.30;41.50;;;;;;5081657;28;20086;-63
2021/03/23 03:22:47;;;;;;;1.70;1.00;;;22.30;41.50;;;;;;5054537;28;20032;-63
2021/03/23 03:25:14;;;;;;;1.58;0.90;;;22.30;41.50;;;;;;5061704;28;20036;-63
2021/03/23 03:27:40;;;;;;;1.92;0.90;;;22.30;41.50;;;;;;5068505;28;20172;-62
2021/03/23 03:30:17;;;;;;;1.45;1.00;;;22.30;41.50;;;;;;5061629;28;20196;-62
2021/03/23 03:32:43;;;;;;;1.30;0.90;;;22.30;41.50;;;;;;5048459;28;20028;-62
2021/03/23 03:35:09;;;;;;;1.30;0.90;;;22.30;41.50;;;;;;5077951;28;20437;-61
2021/03/23 03:37:35;;;;;;;1.60;0.90;;;22.30;41.50;;;;;;5075274;28;20028;-63
2021/03/23 03:40:01;;;;;;;1.80;1.20;;;22.30;41.50;;;;;;5067610;28;20040;-66
2021/03/23 03:42:26;;;;;;;1.75;1.02;;;22.30;41.50;;;;;;5082751;28;20787;-63
2021/03/23 03:44:52;;;;;;;1.55;0.90;;;22.30;41.50;;;;;;5072610;28;20870;-64
2021/03/23 03:47:18;;;;;;;1.38;0.95;;;22.30;41.50;;;;;;5077040;28;20036;-63
2021/03/23 03:49:43;;;;;;;1.38;0.90;;;22.20;41.40;;;;;;5048173;28;20114;-64
2021/03/23 03:52:09;;;;;;;1.10;0.77;;;22.20;41.50;;;;;;5047064;28;20036;-62
2021/03/23 03:54:35;;;;;;;1.35;0.80;;;22.20;41.50;;;;;;5074145;28;20031;-62
2021/03/23 03:57:00;;;;;;;1.40;0.88;;;22.20;41.50;;;;;;5060764;28;20034;-61
2021/03/23 03:59:26;;;;;;;1.35;1.00;;;22.20;41.50;;;;;;5060440;28;20029;-64
2021/03/23 04:01:52;;;;;;;1.10;0.80;;;22.20;41.40;;;;;;5066931;28;20126;-62
2021/03/23 04:04:17;;;;;;;1.75;0.90;;;22.20;41.50;;;;;;5069488;28;20116;-64
2021/03/23 04:06:43;;;;;;;1.33;0.90;;;22.20;41.50;;;;;;5067483;28;20043;-63
2021/03/23 04:09:08;;;;;;;1.15;0.90;;;22.20;41.50;;;;;;5068570;28;20024;-62
2021/03/23 04:11:34;;;;;;;1.15;0.80;;;22.20;41.50;;;;;;5076622;28;20050;-65
2021/03/23 04:14:00;;;;;;;1.83;0.90;;;22.20;41.50;;;;;;5082104;28;20030;-63
2021/03/23 04:16:26;;;;;;;1.38;0.98;;;22.20;41.50;;;;;;5083342;28;20046;-63
2021/03/23 04:18:51;;;;;;;1.75;0.90;;;22.20;41.50;;;;;;5055918;28;20051;-62
2021/03/23 04:21:17;;;;;;;1.48;0.80;;;22.20;41.50;;;;;;5066048;28;20131;-66
2021/03/23 04:23:43;;;;;;;1.73;0.95;;;22.20;41.50;;;;;;5065069;28;20029;-61
2021/03/23 04:26:12;;;;;;;1.17;0.77;;;22.20;41.50;;;;;;5067558;28;20066;-62
2021/03/23 04:28:41;;;;;;;1.20;0.80;;;22.20;41.50;;;;;;5053881;28;20128;-62
2021/03/23 04:31:08;;;;;;;1.80;0.90;;;22.20;41.50;;;;;;5064986;28;20079;-63
2021/03/23 04:33:33;;;;;;;1.40;0.82;;;22.20;41.50;;;;;;5053561;28;20028;-64
2021/03/23 04:36:06;;;;;;;1.30;0.70;;;22.20;41.50;;;;;;5067099;28;20036;-62
2021/03/23 04:38:36;;;;;;;1.02;0.70;;;22.20;41.50;;;;;;5072443;28;20031;-61
2021/03/23 04:41:05;;;;;;;1.80;0.82;;;22.20;41.50;;;;;;5065827;28;20127;-63
2021/03/23 04:43:34;;;;;;;1.13;0.82;;;22.20;41.50;;;;;;5059485;28;20028;-63
2021/03/23 04:46:00;;;;;;;1.15;0.80;;;22.20;41.60;;;;;;5079611;28;20063;-62
2021/03/23 04:48:27;;;;;;;1.45;0.90;;;22.20;41.50;;;;;;5076478;28;20145;-63
2021/03/23 04:50:53;;;;;;;1.63;0.90;;;22.10;41.50;;;;;;5047331;28;20035;-62
2021/03/23 04:53:26;;;;;;;1.23;0.80;;;22.20;41.60;;;;;;5071644;28;20436;-64
2021/03/23 04:55:56;;;;;;;2.28;1.00;;;22.20;41.50;;;;;;5049202;28;20063;-63
2021/03/23 04:58:22;;;;;;;0.82;0.70;;;22.10;41.50;;;;;;5064720;28;20035;-62
2021/03/23 05:00:49;;;;;;;1.35;0.90;;;22.10;41.50;;;;;;5044796;28;20047;-63
2021/03/23 05:03:17;;;;;;;0.70;0.70;;;22.10;41.50;;;;;;5071407;28;20046;-64
2021/03/23 05:05:43;;;;;;;1.42;0.82;;;22.10;41.50;;;;;;5068019;28;20158;-62
2021/03/23 05:08:09;;;;;;;1.13;0.70;;;22.10;41.50;;;;;;5065297;28;20111;-65
2021/03/23 05:10:35;;;;;;;0.80;0.70;;;22.10;41.50;;;;;;5070498;28;20036;-64
2021/03/23 05:13:02;;;;;;;1.30;0.80;;;22.10;41.50;;;;;;5068476;28;20113;-62
2021/03/23 05:15:29;;;;;;;1.10;0.70;;;22.10;41.50;;;;;;5060482;28;20025;-63
2021/03/23 05:17:54;;;;;;;1.35;0.80;;;22.10;41.50;;;;;;5065223;28;20020;-62
2021/03/23 05:20:20;;;;;;;1.25;0.80;;;22.10;41.60;;;;;;5047171;28;20039;-64
2021/03/23 05:22:46;;;;;;;1.55;0.90;;;22.10;41.60;;;;;;5070528;28;20412;-63
2021/03/23 05:25:13;;;;;;;1.30;0.80;;;22.10;41.60;;;;;;5072834;28;20055;-63
2021/03/23 05:27:39;;;;;;;2.13;1.10;;;22.10;41.60;;;;;;5053833;28;20079;-65
2021/03/23 05:30:07;;;;;;;1.10;0.70;;;22.10;41.60;;;;;;5065513;28;20029;-64
2021/03/23 05:32:32;;;;;;;1.38;0.98;;;22.10;41.60;;;;;;5065113;28;20070;-62
2021/03/23 05:34:58;;;;;;;2.08;1.02;;;22.10;42.10;;;;;;5048097;28;20072;-62
2021/03/23 05:37:24;;;;;;;1.08;0.80;;;22.10;41.60;;;;;;5063538;28;20033;-64
2021/03/23 05:39:49;;;;;;;1.55;0.90;;;22.10;41.60;;;;;;5065381;28;20098;-64
2021/03/23 05:42:28;;;;;;;1.52;0.90;;;22.10;41.60;;;;;;5064330;28;20029;-62
2021/03/23 05:45:07;;;;;;;1.40;0.90;;;22.10;41.60;;;;;;5065587;28;20028;-66
2021/03/23 05:47:36;;;;;;;1.88;0.95;;;22.10;41.60;;;;;;5074515;28;20107;-62
2021/03/23 05:50:15;;;;;;;1.50;0.90;;;22.10;41.60;;;;;;5067285;28;20033;-62
2021/03/23 05:52:46;;;;;;;1.73;1.02;;;22.10;41.50;;;;;;5051824;28;20132;-62
2021/03/23 05:55:42;;;;;;;1.63;0.95;;;22.10;41.40;;;;;;5077658;28;20463;-62
2021/03/23 05:58:17;;;;;;;1.23;0.80;;;22.10;41.40;;;;;;5077381;28;20104;-61
2021/03/23 06:00:51;;;;;;;1.02;0.80;;;22.10;41.40;;;;;;5055201;28;20039;-63
2021/03/23 06:03:21;;;;;;;1.85;0.93;;;22.10;41.30;;;;;;5074322;28;20036;-62
2021/03/23 06:06:09;;;;;;;1.25;0.90;;;22.10;41.30;;;;;;5066152;28;20020;-65
2021/03/23 06:08:37;;;;;;;1.20;0.80;;;22.00;41.20;;;;;;5054897;28;20074;-63
2021/03/23 06:11:06;;;;;;;1.73;0.90;;;22.00;41.20;;;;;;5065877;28;20075;-63
2021/03/23 06:13:35;;;;;;;2.03;1.10;;;22.00;41.30;;;;;;5068289;28;20131;-65
2021/03/23 06:16:22;;;;;;;1.48;0.88;;;22.00;41.20;;;;;;5063535;28;20063;-63
2021/03/23 06:19:14;;;;;;;1.75;1.00;;;22.00;41.30;;;;;;5071275;28;20031;-64
2021/03/23 06:21:45;;;;;;;1.23;0.90;;;22.00;41.30;;;;;;5047765;28;20420;-62
2021/03/23 06:24:20;;;;;;;1.45;0.90;;;22.00;41.30;;;;;;5064357;28;20027;-62
2021/03/23 06:26:56;;;;;;;1.42;0.90;;;22.00;41.30;;;;;;5061207;28;20669;-63
2021/03/23 06:29:40;;;;;;;1.70;0.90;;;22.00;41.30;;;;;;5064649;28;20040;-65
2021/03/23 06:32:16;;;;;;;1.40;0.90;;;22.00;41.30;;;;;;5065329;28;20055;-61
2021/03/23 06:34:43;;;;;;;1.45;0.80;;;22.00;41.30;;;;;;5066276;28;20343;-64
2021/03/23 06:37:26;;;;;;;1.10;0.80;;;22.00;41.90;;;;;;5066253;28;20159;-64
2021/03/23 06:39:51;;;;;;;1.25;0.82;;;22.00;41.40;;;;;;5064803;28;20063;-63
2021/03/23 06:42:51;;;;;;;1.25;0.70;;;22.00;41.40;;;;;;5075920;28;20044;-65
2021/03/23 06:46:00;;;;;;;1.63;0.82;;;22.00;41.40;;;;;;5030932;28;20503;-65
2021/03/23 06:48:29;;;;;;;0.95;0.75;;;22.00;41.40;;;;;;5014518;28;20554;-62
2021/03/23 06:51:10;;;;;;;1.42;0.90;;;22.00;41.90;;;;;;5062235;28;20040;-62
2021/03/23 06:53:37;;;;;;;1.63;0.90;;;22.00;41.40;;;;;;5061229;28;20052;-69
2021/03/23 06:56:19;;;;;;;2.10;1.00;;;22.00;41.60;;;;;;5064062;28;20028;-71
2021/03/23 06:58:48;;;;;;;1.92;1.20;;;22.10;41.80;;;;;;5062299;28;20028;-72
2021/03/23 07:01:23;;;;;;;;;;;22.20;41.60;;;;;;5068309;28;20082;-72
2021/03/23 07:03:54;;;;;;;1.35;0.90;;;22.40;41.40;;;;;;5067614;28;20018;-70
2021/03/23 07:06:23;;;;;;;1.80;1.20;;;22.60;41.20;;;;;;5067019;28;20028;-67
2021/03/23 07:09:07;;;;;;;;;;;22.60;41.60;;;;;;5072249;28;20481;-69
2021/03/23 07:12:03;;;;;;;1.60;1.13;;;22.80;40.90;;;;;;5067565;28;19912;-72
2021/03/23 07:14:38;;;;;;;2.58;1.10;;;23.00;40.80;;;;;;5059910;28;20028;-67
2021/03/23 07:17:12;;;;;;;1.67;1.00;;;23.10;40.50;;;;;;5065644;28;20123;-68
2021/03/23 07:19:53;;;;;;;2.10;1.20;;;23.20;40.30;;;;;;5059522;28;20028;-68
2021/03/23 07:22:21;;;;;;;1.70;1.00;;;23.30;40.20;;;;;;5058727;28;20075;-71
2021/03/23 07:24:56;;;;;;;2.72;1.08;;;23.40;40.10;;;;;;5065320;28;20025;-69
2021/03/23 07:27:25;;;;;;;1.80;1.00;;;23.50;40.10;;;;;;5077395;28;20054;-65
2021/03/23 07:29:50;;;;;;;1.90;1.10;;;23.60;40.00;;;;;;5062961;28;20036;-70
2021/03/23 07:32:19;;;;;;;1.70;0.88;;;23.70;39.80;;;;;;5063401;28;20044;-69
2021/03/23 07:35:03;;;;;;;2.20;1.10;;;23.70;39.90;;;;;;5048133;28;20720;-69
2021/03/23 07:37:49;;;;;;;1.55;0.98;;;23.80;39.70;;;;;;5065503;28;20086;-69
2021/03/23 07:40:48;;;;;;;1.75;1.00;;;23.90;39.60;;;;;;5068514;28;20040;-75
2021/03/23 07:43:37;;;;;;;1.00;0.80;;;24.10;39.30;;;;;;5064581;28;20131;-74
2021/03/23 07:46:05;;;;;;;1.38;0.90;;;24.10;39.30;;;;;;5033374;28;20040;-73
2021/03/23 07:48:43;;;;;;;1.80;1.00;;;24.10;39.20;;;;;;5044603;28;20039;-74
2021/03/23 07:51:29;;;;;;;1.63;0.95;;;24.20;39.20;;;;;;5047163;28;20054;-72
2021/03/23 07:54:11;;;;;;;1.67;1.00;;;24.20;39.10;;;;;;5055205;28;20608;-73
2021/03/23 07:56:40;;;;;;;1.40;0.88;;;24.20;39.20;;;;;;5046153;28;20028;-72
2021/03/23 07:59:27;;;;;;;1.83;0.98;;;24.10;39.30;;;;;;5046583;28;20044;-70
2021/03/23 08:02:17;;;;;;;1.63;0.90;;;24.10;39.40;;;;;;5059418;28;20479;-71
2021/03/23 08:05:01;;;;;;;1.77;0.88;;;24.10;39.40;;;;;;5065368;28;20032;-69
2021/03/23 08:07:38;;;;;;;1.95;1.08;;;24.10;39.50;;;;;;5062833;28;20020;-72
2021/03/23 08:10:16;;;;;;;2.00;0.80;;;24.00;39.50;;;;;;5064097;28;20071;-69
2021/03/23 08:13:08;;;;;;;1.52;0.80;;;24.00;39.60;;;;;;5065334;28;20088;-70
2021/03/23 08:15:48;;;;;;;1.10;0.80;;;24.00;39.70;;;;;;5063077;28;20119;-68
2021/03/23 08:18:35;;;;;;;1.45;0.90;;;24.00;40.20;;;;;;5079339;28;20082;-70
2021/03/23 08:21:32;;;;;;;1.65;0.90;;;24.00;39.70;;;;;;5064168;28;20024;-69
2021/03/23 08:24:22;;;;;;;1.58;0.95;;;24.10;39.80;;;;;;5062610;28;20036;-67
2021/03/23 08:26:54;;;;;;;1.80;0.93;;;24.00;39.80;;;;;;5058140;28;20131;-71
2021/03/23 08:29:30;;;;;;;1.27;0.90;;;24.00;39.90;;;;;;5046870;28;20025;-69
2021/03/23 08:32:16;;;;;;;1.75;0.90;;;24.00;39.90;;;;;;5063210;28;20411;-67
2021/03/23 08:35:02;;;;;;;1.65;0.90;;;24.00;40.00;;;;;;5065957;28;20715;-69
2021/03/23 08:38:06;;;;;;;1.90;1.08;;;24.00;40.00;;;;;;5048941;28;20036;-68
2021/03/23 08:40:58;;;;;;;1.73;0.90;;;24.00;40.00;;;;;;5063013;28;20095;-68
2021/03/23 08:43:44;;;;;;;1.27;0.80;;;24.00;40.00;;;;;;5059524;28;20024;-71
2021/03/23 08:46:19;;;;;;;1.05;0.80;;;24.00;40.00;;;;;;5043527;28;20162;-70
2021/03/23 08:48:47;;;;;;;1.52;0.80;;;24.00;40.10;;;;;;5064680;28;20039;-71
2021/03/23 08:51:20;;;;;;;1.65;0.80;;;24.00;40.20;;;;;;5047585;28;20129;-71
2021/03/23 08:53:49;;;;;;;1.17;0.80;;;24.00;40.20;;;;;;5063587;28;20056;-69
2021/03/23 08:56:35;;;;;;;1.90;0.80;;;24.00;40.20;;;;;;5066043;28;20028;-68
2021/03/23 08:59:01;;;;;;;1.20;0.90;;;24.00;40.20;;;;;;5061499;28;20028;-68
2021/03/23 09:01:40;;;;;;;1.30;0.80;;;24.00;40.20;;;;;;5045172;28;20131;-70
2021/03/23 09:04:09;;;;;;;;;;;24.00;40.30;;;;;;5046147;28;20028;-68
2021/03/23 09:06:59;;;;;;;1.03;0.80;;;24.00;40.30;;;;;;5048005;28;19948;-67
2021/03/23 09:09:25;;;;;;;1.38;0.90;;;24.00;40.30;;;;;;5066844;28;20027;-69
2021/03/23 09:12:34;;;;;;;1.42;1.00;;;24.00;40.30;;;;;;5045323;28;20036;-70
2021/03/23 09:15:09;;;;;;;;;;;24.00;40.30;;;;;;5059541;28;20413;-69
2021/03/23 09:17:56;;;;;;;1.23;0.80;;;24.00;40.30;;;;;;5061938;28;19943;-64
2021/03/23 09:20:30;;;;;;;1.30;0.90;;;24.00;40.40;;;;;;5053035;28;20388;-70
2021/03/23 09:23:15;;;;;;;0.95;0.80;;;24.00;40.30;;;;;;5042853;28;20037;-72
2021/03/23 09:25:55;;;;;;;1.10;0.80;;;24.00;40.40;;;;;;5046805;28;20068;-65
2021/03/23 09:28:32;;;;;;;1.23;0.85;;;24.00;40.40;;;;;;5068744;28;20549;-72
2021/03/23 09:31:08;;;;;;;1.40;0.88;;;24.00;40.40;;;;;;5066749;28;20463;-70
2021/03/23 09:33:42;;;;;;;1.33;0.80;;;24.00;40.40;;;;;;5049910;28;20052;-67
2021/03/23 09:36:11;;;;;;;1.33;0.80;;;24.00;40.50;;;;;;5065907;28;20028;-68
2021/03/23 09:38:55;;;;;;;1.20;0.80;;;24.00;40.50;;;;;;5047785;28;20540;-72
2021/03/23 09:41:20;;;;;;;1.45;0.90;;;24.00;40.50;;;;;;5068429;28;20812;-69
2021/03/23 09:44:08;;;;;;;1.60;1.00;;;24.00;40.40;;;;;;5065523;28;20036;-67
2021/03/23 09:46:40;;;;;;;1.08;0.90;;;24.00;40.50;;;;;;5025548;28;20051;-65
2021/03/23 09:49:23;;;;;;;1.20;0.80;;;24.00;40.50;;;;;;5048356;28;20060;-72
2021/03/23 09:51:48;;;;;;;1.20;0.80;;;24.00;40.50;;;;;;5067918;28;20034;-69
2021/03/23 09:54:27;;;;;;;1.52;1.00;;;24.00;40.50;;;;;;5067125;28;20043;-65
2021/03/23 09:56:56;;;;;;;2.75;1.00;;;24.00;40.50;;;;;;5059178;28;20043;-73
2021/03/23 09:59:26;;;;;;;1.98;1.00;;;24.00;40.60;;;;;;5069600;28;20048;-67
2021/03/23 10:02:29;;;;;;;1.45;1.00;;;24.00;40.60;;;;;;5063296;28;20041;-66
2021/03/23 10:04:55;;;;;;;1.50;0.90;;;24.00;40.60;;;;;;5002331;28;20042;-65
2021/03/23 10:07:49;;;;;;;1.55;0.90;;;24.00;40.70;;;;;;5045919;28;20203;-68
2021/03/23 10:10:32;;;;;;;1.52;0.90;;;24.00;40.80;;;;;;5064216;28;20368;-71
2021/03/23 10:13:20;;;;;;;1.20;0.98;;;24.00;40.70;;;;;;5065890;28;20098;-64
2021/03/23 10:15:46;;;;;;;1.38;1.00;;;24.00;40.90;;;;;;5031300;28;20040;-64
2021/03/23 10:18:17;;;;;;;1.52;0.90;;;24.00;40.80;;;;;;5047931;28;20386;-63
2021/03/23 10:20:45;;;;;;;1.65;1.00;;;24.10;40.80;;;;;;5045589;28;20033;-64
2021/03/23 10:23:11;;;;;;;1.77;1.00;;;24.10;40.90;;;;;;5062476;28;20043;-64
2021/03/23 10:25:37;;;;;;;1.80;1.08;;;24.10;40.80;;;;;;5043873;28;20041;-62
2021/03/23 10:28:05;;;;;;;1.30;1.00;;;24.10;40.70;;;;;;5049110;28;20036;-64
2021/03/23 10:30:36;;;;;;;1.90;1.10;;;24.10;40.70;;;;;;5061217;28;20037;-64
2021/03/23 10:33:38;;;;;;;1.80;1.10;;;24.10;40.70;;;;;;5067252;28;20029;-65
2021/03/23 10:36:10;;;;;;;1.77;1.10;;;24.10;40.80;;;;;;4998254;28;20038;-64
2021/03/23 10:38:37;;;;;;;2.45;1.10;;;24.10;40.70;;;;;;5048072;28;20048;-60
2021/03/23 10:41:18;;;;;;;1.55;1.00;;;24.10;40.90;;;;;;5060323;28;20028;-62
2021/03/23 10:43:50;;;;;;;4.57;2.83;;;24.10;39.60;;;;;;5063809;28;20028;-63
2021/03/23 10:46:40;;;;;;;4.68;3.20;;;24.00;38.20;;;;;;5062244;28;20028;-62
2021/03/23 10:49:35;;;;;;;4.30;3.33;;;23.80;36.90;;;;;;5053107;28;20574;-60
2021/03/23 10:52:06;;;;;;;4.93;3.85;;;23.70;35.80;;;;;;5040397;28;20295;-65
2021/03/23 10:54:33;;;;;;;5.50;3.63;;;23.60;36.20;;;;;;5061394;28;20101;-63
2021/03/23 10:57:22;;;;;;;3.17;2.33;;;23.50;36.50;;;;;;5062637;28;20040;-62
2021/03/23 10:59:47;;;;;;;3.13;2.00;;;23.60;38.20;;;;;;5064717;28;20024;-62
2021/03/23 11:02:13;;;;;;;2.30;1.60;;;23.60;39.30;;;;;;5081667;28;20036;-62
2021/03/23 11:04:56;;;;;;;2.97;1.48;;;23.70;39.80;;;;;;5050623;28;20062;-62
2021/03/23 11:07:25;;;;;;;2.38;1.48;;;23.70;39.80;;;;;;5080624;28;20103;-61
2021/03/23 11:09:52;;;;;;;2.60;1.35;;;23.70;39.80;;;;;;5068281;28;20036;-60
2021/03/23 11:12:18;;;;;;;2.60;1.40;;;23.80;40.00;;;;;;5066291;28;20564;-60
2021/03/23 11:14:43;;;;;;;2.05;1.15;;;23.80;40.20;;;;;;5073355;28;20548;-63
2021/03/23 11:17:14;;;;;;;2.00;1.00;;;23.90;40.30;;;;;;5069130;28;20032;-61
2021/03/23 11:19:42;;;;;;;2.20;1.20;;;23.90;40.40;;;;;;5071914;28;20080;-60
2021/03/23 11:22:12;;;;;;;1.70;1.00;;;23.90;40.30;;;;;;5069642;28;20020;-61
2021/03/23 11:24:39;;;;;;;1.58;1.10;;;23.90;40.60;;;;;;5058478;28;20028;-61
2021/03/23 11:27:05;;;;;;;1.80;1.13;;;23.90;40.40;;;;;;5077702;28;20290;-60
2021/03/23 11:29:30;;;;;;;1.65;1.08;;;23.90;40.50;;;;;;5064540;28;20036;-60
2021/03/23 11:31:56;;;;;;;1.60;1.00;;;23.90;40.50;;;;;;5066583;28;20041;-61
2021/03/23 11:34:22;;;;;;;1.98;1.10;;;23.90;40.60;;;;;;5063521;28;20501;-61
2021/03/23 11:36:50;;;;;;;1.70;1.20;;;23.90;40.60;;;;;;5068918;28;20038;-61
2021/03/23 11:39:16;;;;;;;2.28;1.08;;;23.90;40.50;;;;;;5080372;28;20082;-63
2021/03/23 11:41:51;;;;;;;1.50;1.10;;;23.90;40.60;;;;;;5045813;28;20529;-62
2021/03/23 11:44:39;;;;;;;1.42;1.10;;;23.90;40.70;;;;;;5062064;28;20105;-63
2021/03/23 11:47:11;;;;;;;1.63;1.15;;;24.00;40.80;;;;;;5081129;28;20432;-61
2021/03/23 11:49:57;;;;;;;1.40;0.90;;;24.00;40.70;;;;;;5074632;28;20039;-62
2021/03/23 11:52:24;;;;;;;2.33;1.20;;;24.00;40.90;;;;;;5052270;28;20055;-62
2021/03/23 11:54:50;;;;;;;2.90;1.40;;;24.00;41.30;;;;;;5073959;28;20071;-61
2021/03/23 11:57:19;;;;;;;1.77;1.10;;;24.00;40.70;;;;;;5069700;28;20071;-59
2021/03/23 11:59:45;;;;;;;1.60;1.00;;;24.00;40.80;;;;;;5059848;28;20031;-64
2021/03/23 12:02:11;;;;;;;2.25;1.20;;;24.00;40.70;;;;;;5063745;28;20041;-62
2021/03/23 12:04:37;;;;;;;1.73;1.10;;;24.00;40.80;;;;;;5074291;28;20486;-62
2021/03/23 12:07:35;;;;;;;1.55;1.10;;;24.00;40.80;;;;;;5066984;28;20032;-63
2021/03/23 12:10:06;;;;;;;1.67;1.10;;;24.00;40.80;;;;;;5068971;28;20036;-66
2021/03/23 12:12:52;;;;;;;1.60;1.10;;;24.00;40.90;;;;;;5067541;28;20118;-62
2021/03/23 12:15:31;;;;;;;2.25;1.10;;;24.00;40.80;;;;;;5065228;28;20062;-61
2021/03/23 12:17:59;;;;;;;2.28;1.05;;;24.00;40.90;;;;;;5066718;28;20027;-64
2021/03/23 12:20:28;;;;;;;1.50;1.02;;;24.00;41.10;;;;;;5071534;28;20035;-62
2021/03/23 12:22:53;;;;;;;2.40;1.20;;;24.00;41.00;;;;;;5065976;28;20467;-61
2021/03/23 12:25:22;;;;;;;4.50;1.20;;;24.00;41.00;;;;;;5062906;28;20056;-59
2021/03/23 12:27:48;;;;;;;3.40;1.55;;;24.10;40.90;;;;;;5072239;28;20414;-61
2021/03/23 12:30:15;;;;;;;2.70;1.38;;;24.10;41.00;;;;;;5061547;28;20036;-62
2021/03/23 12:32:41;;;;;;;3.35;1.33;;;24.10;41.00;;;;;;5070217;28;20021;-61
2021/03/23 12:35:13;;;;;;;2.38;1.20;;;24.10;41.00;;;;;;5071393;28;20043;-64
2021/03/23 12:37:41;;;;;;;2.55;1.45;;;24.10;41.00;;;;;;5068453;28;20025;-62
2021/03/23 12:40:09;;;;;;;2.17;1.10;;;24.10;41.00;;;;;;5047031;28;20401;-60
2021/03/23 12:42:35;;;;;;;2.42;1.13;;;24.10;40.90;;;;;;5062285;28;20029;-64
2021/03/23 12:45:02;;;;;;;2.58;1.27;;;24.10;41.00;;;;;;5056832;28;20036;-63
2021/03/23 12:47:28;;;;;;;1.90;1.25;;;24.10;41.00;;;;;;5060593;28;20029;-63
2021/03/23 12:49:53;;;;;;;2.15;1.20;;;24.10;41.00;;;;;;5062870;28;20381;-64
2021/03/23 12:52:22;;;;;;;2.20;1.20;;;24.10;41.10;;;;;;5058784;28;20089;-63
2021/03/23 12:54:52;;;;;;;2.10;1.20;;;24.10;41.00;;;;;;5066998;28;20267;-63
2021/03/23 12:57:18;;;;;;;2.15;1.35;;;24.10;41.00;;;;;;5062582;28;20032;-62
2021/03/23 12:59:44;;;;;;;1.75;1.10;;;24.10;41.30;;;;;;5041574;28;20188;-61
2021/03/23 13:02:12;;;;;;;2.13;1.20;;;24.10;41.10;;;;;;5064098;28;20064;-62
2021/03/23 13:04:38;;;;;;;1.88;1.10;;;24.20;41.20;;;;;;5062619;28;20119;-60
2021/03/23 13:07:06;;;;;;;3.38;1.20;;;24.10;41.10;;;;;;5030922;28;20120;-62
2021/03/23 13:09:35;;;;;;;2.90;1.30;;;24.10;41.20;;;;;;5063456;28;20054;-62
2021/03/23 13:12:02;;;;;;;2.40;1.30;;;24.20;41.20;;;;;;5063877;28;20028;-61